Time;durP1;ratioP1;P1;durP2;ratioP2;P2;SDS_P1;SDS_P2;PMS_P1;PMS_P2;Temp;Humidity;BMP_temperature;BMP_pressure;BME280_temperature;BME280_humidity;BME280_pressure;Samples;Min_cycle;Max_cycle;Signal;HPM_P1;HPM_P2
2022/11/12 00:02:12;;;;;;;25.13;11.07;;;8.50;99.90;;;;;;5092849;28;20012;-68
2022/11/12 00:04:38;;;;;;;27.40;13.50;;;8.50;99.90;;;;;;5091210;28;20024;-69
2022/11/12 00:07:03;;;;;;;29.33;13.82;;;8.50;99.90;;;;;;5089739;28;20032;-68
2022/11/12 00:09:29;;;;;;;33.65;15.68;;;8.40;99.90;;;;;;5091635;28;20402;-68
2022/11/12 00:11:54;;;;;;;34.75;14.60;;;8.40;99.90;;;;;;5078947;28;20516;-69
2022/11/12 00:14:20;;;;;;;29.40;14.48;;;8.40;99.90;;;;;;5093175;28;20529;-68
2022/11/12 00:16:45;;;;;;;32.58;14.10;;;8.40;99.90;;;;;;5080843;28;20448;-69
2022/11/12 00:19:11;;;;;;;29.83;13.20;;;8.40;99.90;;;;;;5089570;28;20333;-70
2022/11/12 00:21:37;;;;;;;31.95;14.50;;;8.30;99.90;;;;;;5084052;28;20020;-69
2022/11/12 00:24:02;;;;;;;28.90;14.20;;;8.40;99.90;;;;;;5092961;28;20032;-66
2022/11/12 00:26:28;;;;;;;31.95;15.32;;;8.30;99.90;;;;;;5089712;28;20026;-67
2022/11/12 00:28:54;;;;;;;30.92;14.55;;;8.40;99.90;;;;;;5093016;28;20372;-68
2022/11/12 00:31:20;;;;;;;35.85;15.15;;;8.40;99.90;;;;;;5093301;28;20044;-66
2022/11/12 00:33:45;;;;;;;33.95;15.07;;;8.50;99.90;;;;;;5092733;28;20513;-67
2022/11/12 00:36:11;;;;;;;32.22;14.52;;;8.50;99.90;;;;;;5093396;28;20032;-66
2022/11/12 00:38:37;;;;;;;31.52;15.13;;;8.50;99.90;;;;;;5091518;28;20028;-67
2022/11/12 00:41:02;;;;;;;34.50;14.73;;;8.50;99.90;;;;;;5093211;28;20107;-66
2022/11/12 00:43:28;;;;;;;35.17;16.95;;;8.50;99.90;;;;;;5086861;28;20028;-67
2022/11/12 00:45:53;;;;;;;28.48;14.20;;;8.60;99.90;;;;;;5090811;28;20364;-67
2022/11/12 00:48:19;;;;;;;27.25;11.80;;;8.70;99.90;;;;;;5087872;28;20036;-67
2022/11/12 00:50:44;;;;;;;32.53;14.07;;;8.80;99.90;;;;;;5090112;28;20452;-67
2022/11/12 00:53:10;;;;;;;30.65;14.75;;;8.80;99.90;;;;;;5092420;28;20044;-67
2022/11/12 00:55:35;;;;;;;31.17;14.57;;;8.90;99.90;;;;;;5086567;28;20036;-68
2022/11/12 00:58:01;;;;;;;30.45;14.30;;;8.90;99.90;;;;;;5086068;28;20020;-67
2022/11/12 01:00:26;;;;;;;31.08;13.90;;;8.90;99.90;;;;;;5086218;28;20027;-67
2022/11/12 01:02:52;;;;;;;33.22;15.25;;;9.00;99.90;;;;;;5089124;28;20056;-68
2022/11/12 01:05:18;;;;;;;31.92;14.52;;;9.00;99.90;;;;;;5089568;28;20065;-67
2022/11/12 01:07:44;;;;;;;35.05;16.15;;;9.10;99.90;;;;;;5078839;28;20024;-68
2022/11/12 01:10:10;;;;;;;34.33;15.65;;;9.10;99.90;;;;;;5079741;28;20020;-68
2022/11/12 01:12:36;;;;;;;37.70;17.10;;;9.20;99.90;;;;;;5084354;28;20029;-67
2022/11/12 01:15:03;;;;;;;34.80;15.77;;;9.30;99.90;;;;;;5094156;28;20046;-68
2022/11/12 01:17:30;;;;;;;31.95;16.02;;;9.40;99.90;;;;;;5084603;28;20069;-68
2022/11/12 01:19:55;;;;;;;33.50;16.88;;;9.40;99.90;;;;;;5082860;28;20104;-68
2022/11/12 01:22:21;;;;;;;33.15;15.90;;;9.50;99.90;;;;;;5082923;28;20107;-67
2022/11/12 01:24:47;;;;;;;30.83;14.50;;;9.50;99.90;;;;;;5085155;28;20021;-68
2022/11/12 01:27:12;;;;;;;38.85;18.20;;;9.60;99.90;;;;;;5083006;28;20025;-67
2022/11/12 01:29:38;;;;;;;37.28;17.48;;;9.60;99.90;;;;;;5088999;28;20423;-67
2022/11/12 01:32:03;;;;;;;34.47;16.10;;;9.60;99.90;;;;;;5093575;28;20521;-68
2022/11/12 01:34:29;;;;;;;34.50;15.98;;;9.70;99.90;;;;;;5085993;28;20025;-67
2022/11/12 01:36:54;;;;;;;42.47;15.93;;;9.70;99.90;;;;;;5085983;28;20141;-67
2022/11/12 01:39:20;;;;;;;37.20;17.25;;;9.70;99.90;;;;;;5084888;28;20028;-68
2022/11/12 01:41:46;;;;;;;39.75;17.20;;;9.70;99.90;;;;;;5086684;28;20024;-67
2022/11/12 01:44:24;;;;;;;35.88;16.40;;;9.70;99.90;;;;;;5089320;28;20361;-67
2022/11/12 01:47:04;;;;;;;34.78;16.55;;;9.70;99.90;;;;;;5082029;28;20024;-67
2022/11/12 01:49:48;;;;;;;36.67;16.77;;;9.70;99.90;;;;;;5089691;28;20225;-67
2022/11/12 01:52:34;;;;;;;37.47;18.20;;;9.70;99.90;;;;;;5093284;28;20040;-68
2022/11/12 01:55:13;;;;;;;40.58;16.77;;;9.70;99.90;;;;;;5084637;28;20020;-67
2022/11/12 01:57:44;;;;;;;38.65;18.48;;;9.70;99.90;;;;;;5089279;28;20109;-68
2022/11/12 02:00:11;;;;;;;37.58;16.55;;;9.70;99.90;;;;;;5088970;28;20043;-68
2022/11/12 02:02:38;;;;;;;40.22;19.77;;;9.70;99.90;;;;;;5087779;28;20024;-68
2022/11/12 02:05:07;;;;;;;43.83;20.50;;;9.70;99.90;;;;;;5085826;28;20122;-69
2022/11/12 02:07:35;;;;;;;39.90;19.98;;;9.70;99.90;;;;;;5087827;28;20023;-68
2022/11/12 02:10:02;;;;;;;43.85;18.40;;;9.70;99.90;;;;;;5091533;28;20016;-67
2022/11/12 02:15:13;;;;;;;39.60;18.38;;;9.90;99.90;;;;;;5091062;28;20375;-67
2022/11/12 02:17:39;;;;;;;45.13;22.20;;;9.90;99.90;;;;;;5086185;28;20028;-68
2022/11/12 02:20:08;;;;;;;44.95;22.08;;;9.90;99.90;;;;;;5088287;28;20027;-68
2022/11/12 02:22:34;;;;;;;47.95;23.50;;;10.00;99.90;;;;;;5086909;28;20026;-68
2022/11/12 02:24:59;;;;;;;46.50;22.00;;;10.10;99.90;;;;;;5089793;28;20075;-68
2022/11/12 02:27:25;;;;;;;48.42;22.65;;;10.10;99.90;;;;;;5088047;28;20020;-68
2022/11/12 02:29:51;;;;;;;53.58;24.23;;;10.10;99.90;;;;;;5088562;28;20144;-68
2022/11/12 02:32:17;;;;;;;52.92;23.92;;;10.10;99.90;;;;;;5088495;28;20456;-67
2022/11/12 02:34:42;;;;;;;51.92;25.75;;;10.10;99.90;;;;;;5086713;28;20505;-68
2022/11/12 02:37:08;;;;;;;49.67;22.52;;;10.10;99.90;;;;;;5085037;28;20065;-67
2022/11/12 02:39:33;;;;;;;49.65;23.10;;;10.20;99.90;;;;;;5087301;28;20028;-67
2022/11/12 02:41:59;;;;;;;52.72;26.35;;;10.20;99.90;;;;;;5090571;28;20020;-69
2022/11/12 02:44:24;;;;;;;50.63;24.88;;;10.20;99.90;;;;;;5088343;28;20427;-68
2022/11/12 02:46:50;;;;;;;54.50;26.30;;;10.30;99.90;;;;;;5085125;28;20310;-68
2022/11/12 02:49:15;;;;;;;56.33;28.40;;;10.30;99.90;;;;;;5084759;28;20033;-69
2022/11/12 02:51:41;;;;;;;58.35;27.33;;;10.30;99.90;;;;;;5085681;28;20119;-68
2022/11/12 02:54:06;;;;;;;53.50;26.15;;;10.30;99.90;;;;;;5091766;28;20031;-68
2022/11/12 02:56:32;;;;;;;54.95;25.15;;;10.40;99.90;;;;;;5084302;28;20083;-69
2022/11/12 02:58:58;;;;;;;62.35;26.70;;;10.30;99.90;;;;;;5084530;28;20027;-69
2022/11/12 03:01:24;;;;;;;56.22;26.58;;;10.30;99.90;;;;;;5082922;28;20020;-68
2022/11/12 03:03:49;;;;;;;58.55;26.25;;;10.30;99.90;;;;;;5080781;28;20032;-69
2022/11/12 03:06:15;;;;;;;57.85;28.08;;;10.20;99.90;;;;;;5080807;28;20453;-69
2022/11/12 03:08:41;;;;;;;55.00;24.05;;;10.20;99.90;;;;;;5082101;28;20032;-68
2022/11/12 03:11:08;;;;;;;54.58;25.23;;;10.20;99.90;;;;;;5084004;28;20015;-67
2022/11/12 03:13:34;;;;;;;61.45;28.45;;;10.20;99.90;;;;;;5081313;28;20097;-68
2022/11/12 03:16:00;;;;;;;59.10;27.90;;;10.10;99.90;;;;;;5089142;28;20444;-69
2022/11/12 03:18:26;;;;;;;55.25;27.80;;;10.10;99.90;;;;;;5094021;28;20016;-69
2022/11/12 03:20:51;;;;;;;63.78;28.02;;;10.20;99.90;;;;;;5087237;28;20027;-68
2022/11/12 03:23:17;;;;;;;64.88;30.92;;;10.10;99.90;;;;;;5093941;28;20023;-68
2022/11/12 03:25:43;;;;;;;59.90;27.77;;;10.20;99.90;;;;;;5089987;28;20066;-68
2022/11/12 03:28:11;;;;;;;64.85;29.10;;;10.20;99.90;;;;;;5080108;28;20052;-68
2022/11/12 03:30:39;;;;;;;58.53;27.00;;;10.20;99.90;;;;;;5080983;28;20452;-68
2022/11/12 03:33:06;;;;;;;71.38;34.10;;;10.20;99.90;;;;;;5083252;28;20032;-69
2022/11/12 03:35:32;;;;;;;64.68;28.25;;;10.20;99.90;;;;;;5081257;28;20016;-68
2022/11/12 03:37:59;;;;;;;66.25;27.95;;;10.30;99.90;;;;;;5080791;28;20028;-69
2022/11/12 03:40:25;;;;;;;62.50;28.95;;;10.20;99.90;;;;;;5089370;28;20483;-68
2022/11/12 03:42:51;;;;;;;71.13;28.40;;;10.20;99.90;;;;;;5086819;28;20103;-69
2022/11/12 03:45:19;;;;;;;57.38;26.45;;;10.20;99.90;;;;;;5093284;28;20103;-69
2022/11/12 03:47:47;;;;;;;58.33;26.77;;;10.20;99.90;;;;;;5089745;28;20016;-69
2022/11/12 03:50:14;;;;;;;74.80;28.02;;;10.20;99.90;;;;;;5086531;28;20024;-68
2022/11/12 03:52:45;;;;;;;110.80;29.45;;;10.10;99.90;;;;;;5091712;28;20043;-68
2022/11/12 03:55:11;;;;;;;77.00;26.73;;;10.10;99.90;;;;;;5093205;28;20372;-68
2022/11/12 03:57:36;;;;;;;79.45;25.20;;;10.00;99.90;;;;;;5080186;28;20055;-68
2022/11/12 04:00:04;;;;;;;100.00;29.33;;;9.90;99.90;;;;;;5079613;28;20048;-68
2022/11/12 04:02:30;;;;;;;85.00;28.17;;;9.70;99.90;;;;;;5079702;28;20070;-67
2022/11/12 04:10:24;;;;;;;93.68;30.30;;;9.60;99.90;;;;;;5080097;28;20117;-68
2022/11/12 04:15:33;;;;;;;73.90;25.92;;;9.60;99.90;;;;;;5080285;28;20061;-68
2022/11/12 04:23:44;;;;;;;67.43;29.05;;;9.60;99.90;;;;;;5090855;28;20020;-68
2022/11/12 04:26:22;;;;;;;74.85;30.35;;;9.60;99.90;;;;;;5090264;28;20052;-69
2022/11/12 04:31:31;;;;;;;66.38;25.40;;;9.60;99.90;;;;;;5085237;28;20043;-68
2022/11/12 04:34:27;;;;;;;59.05;26.30;;;9.60;99.90;;;;;;5087594;28;20380;-67
2022/11/12 04:36:43;;;;;;;62.50;27.27;;;9.50;99.90;;;;;;5090560;28;20012;-68
2022/11/12 04:39:08;;;;;;;72.57;30.50;;;9.50;99.90;;;;;;5077573;28;20024;-67
2022/11/12 04:47:02;;;;;;;66.90;27.67;;;9.60;99.90;;;;;;5081587;28;20026;-68
2022/11/12 04:49:27;;;;;;;69.40;27.85;;;9.60;99.90;;;;;;5097571;28;20095;-68
2022/11/12 04:52:05;;;;;;;81.13;32.60;;;9.70;99.90;;;;;;5083921;28;20071;-67
2022/11/12 04:54:30;;;;;;;73.63;30.00;;;9.70;99.90;;;;;;5093468;28;20433;-68
2022/11/12 04:56:56;;;;;;;67.07;27.45;;;9.70;99.90;;;;;;5080563;28;20013;-68
2022/11/12 04:59:21;;;;;;;80.90;31.30;;;9.70;99.90;;;;;;5089551;28;20103;-68
2022/11/12 05:01:47;;;;;;;68.43;27.52;;;9.60;99.90;;;;;;5085678;28;20131;-68
2022/11/12 05:04:12;;;;;;;83.95;32.85;;;9.70;99.90;;;;;;5082639;28;20056;-68
2022/11/12 05:06:50;;;;;;;82.47;31.08;;;9.60;99.90;;;;;;5093607;28;20027;-68
2022/11/12 05:09:16;;;;;;;64.18;23.90;;;9.60;99.90;;;;;;5083095;28;20105;-68
2022/11/12 05:11:42;;;;;;;76.25;28.13;;;9.60;99.90;;;;;;5086357;28;20536;-68
2022/11/12 05:14:08;;;;;;;82.05;29.08;;;9.60;99.90;;;;;;5089212;28;20103;-68
2022/11/12 05:16:33;;;;;;;71.25;26.00;;;9.50;99.90;;;;;;5082948;28;20329;-67
2022/11/12 05:18:59;;;;;;;74.97;28.90;;;9.50;99.90;;;;;;5096676;28;20321;-68
2022/11/12 05:24:08;;;;;;;72.50;30.55;;;9.50;99.90;;;;;;5090139;28;20077;-68
2022/11/12 05:26:34;;;;;;;80.22;32.55;;;9.50;99.90;;;;;;5079970;28;20020;-68
2022/11/12 05:29:00;;;;;;;71.35;28.60;;;9.50;99.90;;;;;;5092066;28;20496;-67
2022/11/12 05:31:25;;;;;;;71.80;29.33;;;9.50;99.90;;;;;;5082758;28;20404;-67
2022/11/12 05:33:51;;;;;;;79.97;33.25;;;9.50;99.90;;;;;;5084879;28;20028;-67
2022/11/12 05:36:16;;;;;;;75.97;32.30;;;9.40;99.90;;;;;;5091317;28;20103;-67
2022/11/12 05:38:42;;;;;;;75.45;30.42;;;9.50;99.90;;;;;;5079840;28;20100;-67
2022/11/12 05:41:07;;;;;;;73.18;28.40;;;9.60;99.90;;;;;;5093266;28;20096;-67
2022/11/12 05:43:33;;;;;;;80.45;31.63;;;9.70;99.90;;;;;;5096384;28;20016;-66
2022/11/12 05:45:58;;;;;;;80.70;32.75;;;9.60;99.90;;;;;;5083985;28;20055;-66
2022/11/12 05:48:24;;;;;;;104.72;34.22;;;9.70;99.90;;;;;;5092096;28;20020;-67
2022/11/12 05:50:51;;;;;;;193.55;43.70;;;9.70;99.90;;;;;;5079447;28;20031;-67
2022/11/12 05:53:17;;;;;;;80.32;28.48;;;9.80;99.90;;;;;;5089041;28;20044;-67
2022/11/12 05:55:42;;;;;;;90.32;31.85;;;9.80;99.90;;;;;;5085485;28;20024;-67
2022/11/12 05:58:08;;;;;;;74.20;31.13;;;9.80;99.90;;;;;;5082131;28;20020;-67
2022/11/12 06:00:40;;;;;;;74.70;30.52;;;9.90;99.90;;;;;;5092175;28;20017;-67
2022/11/12 06:03:12;;;;;;;85.05;29.38;;;9.90;99.90;;;;;;5080728;28;20016;-67
2022/11/12 06:05:37;;;;;;;75.97;31.02;;;9.90;99.90;;;;;;5086725;28;20032;-67
2022/11/12 06:08:04;;;;;;;80.95;29.70;;;9.90;99.90;;;;;;5088933;28;20023;-67
2022/11/12 06:10:31;;;;;;;66.45;28.73;;;10.00;99.90;;;;;;5078650;28;20033;-67
2022/11/12 06:12:57;;;;;;;75.47;28.67;;;10.00;99.90;;;;;;5091916;28;20444;-67
2022/11/12 06:15:26;;;;;;;70.13;28.88;;;10.00;99.90;;;;;;5083257;28;20016;-67
2022/11/12 06:17:52;;;;;;;64.60;25.55;;;9.90;99.90;;;;;;5084041;28;20023;-67
2022/11/12 06:20:19;;;;;;;69.50;26.35;;;9.90;99.90;;;;;;5090740;28;20024;-67
2022/11/12 06:22:45;;;;;;;59.28;27.35;;;9.90;99.90;;;;;;5078692;28;20025;-67
2022/11/12 06:25:10;;;;;;;68.22;27.02;;;9.80;99.90;;;;;;5089765;28;20364;-67
2022/11/12 06:27:36;;;;;;;122.45;28.92;;;9.90;99.90;;;;;;5095540;28;20047;-67
2022/11/12 06:30:02;;;;;;;71.10;28.98;;;9.90;99.90;;;;;;5095338;28;20050;-68
2022/11/12 06:32:28;;;;;;;66.18;25.30;;;9.80;99.90;;;;;;5078766;28;20027;-67
2022/11/12 06:34:53;;;;;;;68.78;25.83;;;9.80;99.90;;;;;;5091614;28;20025;-67
2022/11/12 06:37:20;;;;;;;63.47;24.30;;;9.80;99.90;;;;;;5082053;28;20072;-67
2022/11/12 06:39:46;;;;;;;61.03;26.42;;;9.90;99.90;;;;;;5084404;28;20025;-67
2022/11/12 06:42:12;;;;;;;68.30;27.88;;;9.90;99.90;;;;;;5089281;28;20031;-67
2022/11/12 06:44:38;;;;;;;68.60;25.42;;;9.90;99.90;;;;;;5095100;28;20028;-67
2022/11/12 06:47:03;;;;;;;65.30;24.17;;;9.90;99.90;;;;;;5090109;28;20027;-67
2022/11/12 06:49:29;;;;;;;64.88;26.67;;;9.90;99.90;;;;;;5083328;28;20095;-67
2022/11/12 06:51:54;;;;;;;67.90;26.70;;;9.90;99.90;;;;;;5091775;28;20051;-66
2022/11/12 06:54:20;;;;;;;67.93;28.05;;;9.90;99.90;;;;;;5079475;28;20025;-68
2022/11/12 06:56:45;;;;;;;66.03;25.67;;;9.90;99.90;;;;;;5093714;28;20099;-68
2022/11/12 06:59:11;;;;;;;69.55;23.00;;;10.00;99.90;;;;;;5089368;28;20394;-67
2022/11/12 07:01:36;;;;;;;75.30;25.13;;;9.90;99.90;;;;;;5084159;28;20494;-68
2022/11/12 07:04:02;;;;;;;76.15;26.85;;;9.90;99.90;;;;;;5082025;28;20029;-68
2022/11/12 07:06:27;;;;;;;78.35;26.40;;;9.90;99.90;;;;;;5090927;28;20070;-68
2022/11/12 07:08:53;;;;;;;191.00;35.03;;;9.90;99.90;;;;;;5077551;28;20027;-68
2022/11/12 07:11:19;;;;;;;94.75;29.40;;;9.90;99.90;;;;;;5087557;28;20448;-67
2022/11/12 07:13:46;;;;;;;94.00;28.90;;;10.00;99.90;;;;;;5084980;28;20028;-68
2022/11/12 07:16:18;;;;;;;105.65;29.50;;;10.00;99.90;;;;;;5086097;28;20027;-67
2022/11/12 07:18:45;;;;;;;80.70;28.92;;;10.10;99.90;;;;;;5086013;28;20448;-66
2022/11/12 07:21:13;;;;;;;85.88;28.77;;;10.10;99.90;;;;;;5092884;28;20479;-68
2022/11/12 07:23:39;;;;;;;77.53;28.02;;;10.20;99.90;;;;;;5084280;28;20029;-68
2022/11/12 07:26:19;;;;;;;90.32;28.67;;;10.20;99.90;;;;;;5087655;28;20024;-67
2022/11/12 07:28:46;;;;;;;77.05;28.48;;;10.20;99.90;;;;;;5077133;28;20031;-67
2022/11/12 07:31:13;;;;;;;79.85;28.27;;;10.30;99.90;;;;;;5094037;28;20043;-66
2022/11/12 07:33:40;;;;;;;72.72;28.45;;;10.30;99.90;;;;;;5083673;28;20097;-67
2022/11/12 07:36:11;;;;;;;78.70;26.88;;;10.40;99.90;;;;;;5077364;28;20032;-68
2022/11/12 07:42:06;;;;;;;63.88;24.63;;;10.50;99.90;;;;;;5087405;28;20063;-68
2022/11/12 07:44:32;;;;;;;65.47;26.58;;;10.50;99.90;;;;;;5085909;28;20457;-67
2022/11/12 07:46:58;;;;;;;62.20;24.77;;;10.50;99.90;;;;;;5089711;28;20022;-68
2022/11/12 07:49:23;;;;;;;72.15;26.63;;;10.60;99.90;;;;;;5080706;28;20313;-68
2022/11/12 07:51:49;;;;;;;57.22;24.10;;;10.60;99.90;;;;;;5082169;28;20449;-67
2022/11/12 07:54:14;;;;;;;57.25;24.13;;;10.60;99.90;;;;;;5088302;28;20381;-67
2022/11/12 07:56:40;;;;;;;52.10;22.42;;;10.70;99.90;;;;;;5076464;28;20078;-67
2022/11/12 07:59:06;;;;;;;50.63;23.10;;;10.60;99.90;;;;;;5087950;28;20047;-67
2022/11/12 08:01:33;;;;;;;50.20;21.20;;;10.60;99.90;;;;;;5085215;28;20478;-67
2022/11/12 08:04:00;;;;;;;49.65;21.52;;;10.60;99.90;;;;;;5094034;28;20016;-67
2022/11/12 08:06:26;;;;;;;56.25;21.83;;;10.50;99.90;;;;;;5093668;28;20418;-67
2022/11/12 08:08:53;;;;;;;53.00;23.42;;;10.50;99.90;;;;;;5093586;28;20024;-67
2022/11/12 08:11:20;;;;;;;56.60;22.77;;;10.40;99.90;;;;;;5092966;28;20026;-67
2022/11/12 08:13:46;;;;;;;61.28;23.60;;;10.50;99.90;;;;;;5093014;28;20119;-67
2022/11/12 08:16:11;;;;;;;62.90;24.75;;;10.50;99.90;;;;;;5093520;28;20052;-67
2022/11/12 08:18:38;;;;;;;62.33;23.20;;;10.60;99.90;;;;;;5092735;28;20351;-67
2022/11/12 08:21:06;;;;;;;67.75;24.20;;;10.70;99.90;;;;;;5093673;28;20073;-67
2022/11/12 08:23:32;;;;;;;53.95;24.27;;;10.70;99.90;;;;;;5092481;28;20084;-67
2022/11/12 08:25:59;;;;;;;46.40;21.65;;;10.80;99.90;;;;;;5093794;28;20024;-67
2022/11/12 08:28:25;;;;;;;47.22;20.05;;;10.90;99.90;;;;;;5092302;28;20467;-67
2022/11/12 08:30:50;;;;;;;53.05;21.30;;;10.90;99.90;;;;;;5093666;28;20077;-67
2022/11/12 08:33:16;;;;;;;49.20;18.63;;;11.00;99.90;;;;;;5093290;28;20039;-67
2022/11/12 08:35:41;;;;;;;49.63;20.83;;;11.00;99.90;;;;;;5093385;28;20470;-67
2022/11/12 08:38:09;;;;;;;46.50;22.60;;;10.90;99.90;;;;;;5093785;28;20027;-67
2022/11/12 08:40:34;;;;;;;52.78;21.73;;;11.00;99.90;;;;;;5093471;28;20055;-67
2022/11/12 08:43:02;;;;;;;73.93;22.10;;;11.00;99.90;;;;;;5093292;28;20104;-67
2022/11/12 08:45:30;;;;;;;51.10;22.77;;;11.10;99.90;;;;;;5093219;28;20028;-67
2022/11/12 08:48:01;;;;;;;50.78;20.77;;;11.20;99.90;;;;;;5093569;28;20035;-68
2022/11/12 08:50:27;;;;;;;45.58;22.25;;;11.30;99.90;;;;;;5093457;28;20024;-67
2022/11/12 08:52:57;;;;;;;59.88;19.52;;;11.40;99.90;;;;;;5093539;28;20097;-67
2022/11/12 08:55:23;;;;;;;47.05;19.83;;;11.40;99.90;;;;;;5093931;28;20344;-67
2022/11/12 08:57:48;;;;;;;46.22;21.80;;;11.40;99.90;;;;;;5093324;28;20020;-67
2022/11/12 09:00:14;;;;;;;67.30;21.50;;;11.50;99.90;;;;;;5093267;28;20035;-67
2022/11/12 09:02:40;;;;;;;43.75;21.25;;;11.60;99.90;;;;;;5093011;28;20102;-67
2022/11/12 09:05:06;;;;;;;43.30;21.08;;;11.70;99.90;;;;;;5093537;28;20024;-67
2022/11/12 09:07:31;;;;;;;41.38;19.77;;;11.80;99.90;;;;;;5092796;28;20060;-67
2022/11/12 09:09:57;;;;;;;35.28;19.17;;;11.90;99.90;;;;;;5093276;28;20016;-67
2022/11/12 09:12:22;;;;;;;48.47;17.98;;;12.00;99.90;;;;;;5093249;28;20020;-67
2022/11/12 09:14:48;;;;;;;42.17;18.33;;;12.10;99.90;;;;;;5092796;28;20047;-67
2022/11/12 09:17:14;;;;;;;35.35;17.42;;;12.10;99.90;;;;;;5093381;28;20483;-67
2022/11/12 09:19:40;;;;;;;32.13;16.25;;;12.10;99.90;;;;;;5090548;28;20028;-66
2022/11/12 09:22:06;;;;;;;30.40;16.58;;;12.20;99.90;;;;;;5081192;28;20024;-67
2022/11/12 09:24:31;;;;;;;39.17;17.63;;;12.20;99.90;;;;;;5092894;28;20520;-67
2022/11/12 09:26:57;;;;;;;36.13;17.30;;;12.30;99.90;;;;;;5080599;28;20025;-67
2022/11/12 09:29:22;;;;;;;35.83;18.85;;;12.30;99.90;;;;;;5086270;28;20036;-68
2022/11/12 09:31:48;;;;;;;37.30;17.10;;;12.30;99.90;;;;;;5087443;28;20364;-67
2022/11/12 09:34:13;;;;;;;32.90;16.10;;;12.40;99.90;;;;;;5095320;28;20027;-66
2022/11/12 09:36:39;;;;;;;34.13;17.88;;;12.40;99.90;;;;;;5095814;28;20020;-68
2022/11/12 09:39:05;;;;;;;30.63;16.60;;;12.60;99.90;;;;;;5094334;28;20020;-68
2022/11/12 09:41:37;;;;;;;27.25;14.35;;;13.20;99.90;;;;;;5096350;28;20420;-68
2022/11/12 09:44:18;;;;;;;25.00;13.80;;;14.10;99.90;;;;;;5096383;28;20046;-67
2022/11/12 09:46:58;;;;;;;24.10;12.98;;;15.10;99.90;;;;;;5095321;28;20405;-67
2022/11/12 09:49:34;;;;;;;23.23;13.88;;;16.30;99.90;;;;;;5095871;28;20023;-67
2022/11/12 09:52:18;;;;;;;24.23;13.07;;;17.30;99.90;;;;;;5095984;28;20032;-68
2022/11/12 09:54:48;;;;;;;19.45;10.88;;;18.00;99.90;;;;;;5076145;28;20066;-67
2022/11/12 09:57:14;;;;;;;19.30;11.38;;;18.70;99.90;;;;;;5076319;28;20017;-67
2022/11/12 09:59:41;;;;;;;20.13;11.75;;;19.20;99.90;;;;;;5075262;28;20444;-67
2022/11/12 10:02:30;;;;;;;20.67;11.63;;;19.80;99.90;;;;;;5096247;28;20030;-67
2022/11/12 10:05:18;;;;;;;18.92;11.15;;;20.30;99.90;;;;;;5075988;28;20078;-67
2022/11/12 10:07:56;;;;;;;16.33;9.98;;;20.70;99.80;;;;;;5077966;28;20036;-68
2022/11/12 10:10:40;;;;;;;19.92;11.65;;;21.10;98.90;;;;;;5096140;28;20503;-67
2022/11/12 10:13:39;;;;;;;17.73;11.35;;;21.50;98.50;;;;;;5095675;28;20040;-67
2022/11/12 10:16:41;;;;;;;19.02;9.95;;;21.90;97.50;;;;;;5092325;28;20119;-67
2022/11/12 10:19:28;;;;;;;17.67;10.07;;;22.10;97.00;;;;;;5095871;28;20398;-67
2022/11/12 10:22:06;;;;;;;15.73;9.73;;;22.40;96.70;;;;;;5094338;28;20106;-67
2022/11/12 10:24:36;;;;;;;16.73;10.55;;;22.70;96.30;;;;;;5092803;28;20020;-67
2022/11/12 10:27:17;;;;;;;15.77;9.63;;;23.10;96.00;;;;;;5095831;28;20031;-67
2022/11/12 10:29:54;;;;;;;16.50;10.13;;;23.50;95.20;;;;;;5095149;28;20107;-67
2022/11/12 10:32:20;;;;;;;14.30;9.55;;;23.80;94.50;;;;;;5095491;28;20036;-68
2022/11/12 10:34:46;;;;;;;16.52;9.50;;;23.90;94.30;;;;;;5095268;28;20456;-68
2022/11/12 10:37:14;;;;;;;15.68;9.93;;;23.90;93.90;;;;;;5087717;28;20028;-67
2022/11/12 10:39:42;;;;;;;18.67;10.93;;;24.10;94.00;;;;;;5079684;28;20102;-68
2022/11/12 10:42:13;;;;;;;16.58;9.07;;;24.30;93.60;;;;;;5095310;28;20035;-67
2022/11/12 10:44:42;;;;;;;15.85;9.80;;;24.40;93.10;;;;;;5079138;28;20063;-68
2022/11/12 10:47:29;;;;;;;13.75;8.07;;;24.40;93.00;;;;;;5074931;28;20350;-68
2022/11/12 10:50:04;;;;;;;16.15;9.55;;;24.20;92.40;;;;;;5075217;28;20024;-68
2022/11/12 10:52:30;;;;;;;15.85;9.48;;;23.90;93.20;;;;;;5074723;28;20060;-68
2022/11/12 10:55:20;;;;;;;13.98;8.55;;;23.90;93.30;;;;;;5081245;28;20016;-68
2022/11/12 10:57:45;;;;;;;15.13;8.48;;;24.20;93.20;;;;;;5093893;28;20476;-68
2022/11/12 11:00:11;;;;;;;14.07;8.48;;;24.50;92.90;;;;;;5091390;28;20130;-68
2022/11/12 11:02:45;;;;;;;15.82;9.40;;;24.60;92.10;;;;;;5093357;28;20409;-68
2022/11/12 11:05:49;;;;;;;14.00;7.10;;;24.50;92.30;;;;;;5093721;28;20031;-68
2022/11/12 11:08:31;;;;;;;12.55;7.63;;;24.30;91.60;;;;;;5072218;28;20097;-68
2022/11/12 11:11:32;;;;;;;12.57;8.20;;;24.00;92.50;;;;;;5074007;28;20021;-69
2022/11/12 11:14:24;;;;;;;14.37;7.90;;;24.00;92.20;;;;;;5071884;28;20090;-68
2022/11/12 11:16:59;;;;;;;13.52;6.60;;;24.20;92.00;;;;;;5094140;28;20468;-67
2022/11/12 11:19:37;;;;;;;13.60;7.75;;;24.00;91.90;;;;;;5085351;28;20424;-68
2022/11/12 11:22:12;;;;;;;11.68;7.45;;;23.80;92.50;;;;;;5092381;28;20024;-69
2022/11/12 11:25:06;;;;;;;11.90;7.25;;;23.80;92.90;;;;;;5108371;28;20020;-68
2022/11/12 11:27:32;;;;;;;11.18;6.57;;;23.90;92.20;;;;;;5094564;28;20479;-68
2022/11/12 11:30:10;;;;;;;10.13;6.05;;;24.10;92.30;;;;;;5094178;28;20036;-66
2022/11/12 11:32:49;;;;;;;10.90;6.07;;;24.20;91.40;;;;;;5093660;28;20050;-67
2022/11/12 11:35:20;;;;;;;11.75;5.93;;;24.00;91.70;;;;;;5094170;28;20020;-67
2022/11/12 11:38:12;;;;;;;10.55;5.95;;;23.60;91.60;;;;;;5094332;28;20035;-67
2022/11/12 11:41:16;;;;;;;10.63;5.68;;;23.20;92.30;;;;;;5087113;28;20032;-66
2022/11/12 11:43:52;;;;;;;8.20;5.40;;;23.20;92.40;;;;;;5093849;28;20020;-67
2022/11/12 11:46:38;;;;;;;10.25;6.30;;;23.00;92.50;;;;;;5093639;28;20349;-67
2022/11/12 11:49:42;;;;;;;12.57;6.20;;;22.90;92.50;;;;;;5083301;28;20471;-67
2022/11/12 11:52:30;;;;;;;11.23;6.53;;;22.90;92.50;;;;;;5093508;28;20032;-68
2022/11/12 11:55:22;;;;;;;9.85;6.43;;;22.90;92.80;;;;;;5093379;28;20113;-69
2022/11/12 11:57:51;;;;;;;12.05;5.78;;;23.00;93.00;;;;;;5093981;28;20115;-67
2022/11/12 12:00:21;;;;;;;7.88;5.15;;;23.20;92.50;;;;;;5094020;28;20437;-68
2022/11/12 12:03:12;;;;;;;8.32;4.88;;;23.30;92.00;;;;;;5078556;28;20024;-67
2022/11/12 12:06:03;;;;;;;8.88;5.72;;;23.40;92.40;;;;;;5093106;28;20026;-67
2022/11/12 12:09:06;;;;;;;9.43;5.57;;;23.10;92.50;;;;;;5074371;28;20028;-67
2022/11/12 12:12:04;;;;;;;12.00;6.68;;;23.20;92.70;;;;;;5073374;28;20028;-67
2022/11/12 12:15:05;;;;;;;13.05;5.90;;;23.50;92.50;;;;;;5072275;28;20028;-67
2022/11/12 12:18:05;;;;;;;8.68;4.93;;;23.60;92.90;;;;;;5085017;28;20009;-67
2022/11/12 12:20:46;;;;;;;10.77;5.53;;;23.80;92.20;;;;;;5093445;28;20024;-68
2022/11/12 12:23:39;;;;;;;9.40;5.10;;;23.80;92.30;;;;;;5091481;28;20069;-68
2022/11/12 12:26:21;;;;;;;8.93;5.35;;;23.90;92.20;;;;;;5073339;28;20020;-67
2022/11/12 12:28:57;;;;;;;8.43;4.65;;;24.10;92.50;;;;;;5090638;28;20456;-68
2022/11/12 12:31:36;;;;;;;7.30;4.50;;;24.30;91.90;;;;;;5093960;28;20130;-68
2022/11/12 12:34:12;;;;;;;7.05;4.72;;;24.30;91.30;;;;;;5082872;28;20044;-67
2022/11/12 12:36:40;;;;;;;7.15;4.28;;;24.30;91.50;;;;;;5073263;28;20028;-67
2022/11/12 12:39:25;;;;;;;7.10;4.47;;;24.40;91.50;;;;;;5080142;28;20058;-67
2022/11/12 12:42:00;;;;;;;6.72;4.40;;;24.50;91.60;;;;;;5083988;28;20016;-67
2022/11/12 12:47:18;;;;;;;8.10;4.40;;;24.60;91.20;;;;;;5092409;28;20027;-68
2022/11/12 12:49:47;;;;;;;7.43;4.07;;;24.70;91.40;;;;;;5093161;28;20012;-67
2022/11/12 12:52:17;;;;;;;8.32;4.93;;;24.50;91.00;;;;;;5092201;28;20013;-68
2022/11/12 12:54:49;;;;;;;7.38;4.10;;;24.30;91.10;;;;;;5108641;28;20111;-67
2022/11/12 12:57:30;;;;;;;8.88;4.57;;;24.20;91.10;;;;;;5093474;28;20020;-67
2022/11/12 13:00:27;;;;;;;7.37;3.97;;;24.00;91.10;;;;;;5093315;28;20026;-67
2022/11/12 13:02:53;;;;;;;6.93;4.10;;;23.90;91.80;;;;;;5093314;28;20257;-67
2022/11/12 13:05:33;;;;;;;8.00;4.53;;;23.80;91.60;;;;;;5093230;28;20028;-67
2022/11/12 13:08:11;;;;;;;10.15;4.93;;;23.60;91.70;;;;;;5087398;28;20031;-67
2022/11/12 13:10:49;;;;;;;8.23;4.45;;;23.30;91.90;;;;;;5097014;28;20016;-66
2022/11/12 13:13:18;;;;;;;8.18;4.85;;;23.10;92.60;;;;;;5096886;28;20032;-68
2022/11/12 13:15:52;;;;;;;9.07;4.50;;;22.80;92.60;;;;;;5097517;28;20025;-68
2022/11/12 13:18:36;;;;;;;10.10;5.00;;;22.50;92.50;;;;;;5093358;28;20020;-67
2022/11/12 13:21:16;;;;;;;7.53;4.22;;;22.00;93.10;;;;;;5097046;28;20024;-66
2022/11/12 13:24:07;;;;;;;10.13;5.10;;;21.50;93.50;;;;;;5087822;28;20028;-67